Time;durP1;ratioP1;P1;durP2;ratioP2;P2;SDS_P1;SDS_P2;PMS_P1;PMS_P2;Temp;Humidity;BMP_temperature;BMP_pressure;BME280_temperature;BME280_humidity;BME280_pressure;Samples;Min_cycle;Max_cycle;Signal;HPM_P1;HPM_P2
2021/09/19 00:00:11;;;;;;;3.40;0.68;;;;;;;16.13;79.25;98503.91;5051174;28;20063;-50
2021/09/19 00:02:36;;;;;;;6.25;1.52;;;;;;;16.01;79.69;98500.53;5052290;28;20104;-49
2021/09/19 00:05:03;;;;;;;33.22;30.02;;;;;;;15.97;79.99;98494.94;5052330;28;20106;-50
2021/09/19 00:07:29;;;;;;;59.58;54.50;;;;;;;15.93;80.15;98494.59;5051002;28;20017;-50
2021/09/19 00:09:54;;;;;;;111.22;100.63;;;;;;;15.97;80.84;98490.44;5050940;28;20027;-50
2021/09/19 00:12:20;;;;;;;9.40;2.72;;;;;;;16.05;80.68;98478.66;5050904;28;20047;-50
2021/09/19 00:14:46;;;;;;;10.77;1.30;;;;;;;16.06;80.80;98487.41;5052232;28;20415;-50
2021/09/19 00:17:12;;;;;;;7.10;1.48;;;;;;;16.05;80.78;98493.72;5050818;28;20029;-49
2021/09/19 00:19:37;;;;;;;11.45;5.85;;;;;;;16.05;80.77;98499.81;5051839;28;20053;-49
2021/09/19 00:22:04;;;;;;;14.23;4.40;;;;;;;16.22;81.99;98513.06;5052072;28;20475;-51
2021/09/19 00:24:29;;;;;;;22.55;8.05;;;;;;;16.46;82.03;98513.69;5050690;28;20025;-50
2021/09/19 00:26:55;;;;;;;16.40;2.22;;;;;;;16.62;81.11;98527.16;5052024;28;20025;-49
2021/09/19 00:29:21;;;;;;;5.53;1.42;;;;;;;16.41;80.06;98529.50;5050689;28;20141;-50
2021/09/19 00:31:47;;;;;;;6.03;0.98;;;;;;;16.14;79.93;98538.09;5050650;28;20106;-49
2021/09/19 00:34:14;;;;;;;5.85;1.02;;;;;;;15.98;80.45;98531.75;5051955;28;20491;-51
2021/09/19 00:36:40;;;;;;;9.65;3.60;;;;;;;15.89;80.73;98533.16;5050970;28;20017;-52
2021/09/19 00:39:07;;;;;;;8.13;3.75;;;;;;;15.82;81.35;98529.88;5050527;28;20036;-50
2021/09/19 00:41:34;;;;;;;48.03;43.30;;;;;;;16.02;81.99;98518.03;5051689;28;20451;-50
2021/09/19 00:44:08;;;;;;;16.75;11.25;;;;;;;16.10;81.61;98513.16;5050506;28;20021;-50
2021/09/19 00:46:34;;;;;;;2.72;1.10;;;;;;;15.87;80.91;98500.06;5050452;28;20029;-50
2021/09/19 00:49:00;;;;;;;4.97;4.38;;;;;;;15.40;81.10;98498.41;5050479;28;20033;-49
2021/09/19 00:51:28;;;;;;;2.08;1.35;;;;;;;15.07;81.88;98510.47;5050401;28;20579;-50
2021/09/19 00:53:56;;;;;;;11.50;4.30;;;;;;;14.95;82.55;98514.97;5051731;28;20040;-50
2021/09/19 00:56:25;;;;;;;4.45;1.15;;;;;;;15.13;82.95;98541.25;5050310;28;20024;-49
2021/09/19 00:58:55;;;;;;;22.85;19.90;;;;;;;15.12;82.33;98558.16;5051647;28;20029;-50
2021/09/19 01:01:21;;;;;;;4.95;2.15;;;;;;;15.12;82.32;98565.28;5050189;28;20025;-50
2021/09/19 01:03:47;;;;;;;4.43;1.30;;;;;;;15.12;82.13;98560.00;5051619;28;20029;-49
2021/09/19 01:06:15;;;;;;;6.68;4.32;;;;;;;15.18;82.55;98559.06;5050284;28;20023;-50
2021/09/19 01:08:42;;;;;;;3.70;1.38;;;;;;;15.28;82.56;98559.25;5051570;28;20075;-50
2021/09/19 01:11:13;;;;;;;9.68;2.30;;;;;;;15.31;82.85;98548.22;5050210;28;20086;-49
2021/09/19 01:13:43;;;;;;;11.13;5.97;;;;;;;15.53;83.12;98542.28;5050310;28;20032;-49
2021/09/19 01:16:10;;;;;;;12.07;2.25;;;;;;;15.68;83.26;98547.88;5051502;28;20024;-49
2021/09/19 01:18:39;;;;;;;134.40;123.25;;;;;;;15.75;82.74;98539.81;5051441;28;20200;-50
2021/09/19 01:21:05;;;;;;;55.85;50.90;;;;;;;15.94;83.28;98548.34;5049924;28;20063;-50
2021/09/19 01:23:32;;;;;;;5.57;1.52;;;;;;;15.91;81.79;98559.41;5050169;28;20021;-50
2021/09/19 01:25:58;;;;;;;3.25;1.25;;;;;;;15.66;81.09;98572.97;5051429;28;20428;-49
2021/09/19 01:28:24;;;;;;;5.00;1.90;;;;;;;15.41;80.76;98574.06;5051417;28;20024;-49
2021/09/19 01:30:50;;;;;;;4.35;0.80;;;;;;;15.18;80.72;98567.78;5050055;28;20033;-52
2021/09/19 01:33:16;;;;;;;3.25;0.82;;;;;;;14.97;81.22;98563.13;5051394;28;20026;-52
2021/09/19 01:35:42;;;;;;;6.80;2.55;;;;;;;14.95;82.61;98555.44;5049977;28;20029;-52
2021/09/19 01:38:07;;;;;;;7.25;1.83;;;;;;;15.26;83.74;98560.53;5051288;28;20036;-52
2021/09/19 01:40:33;;;;;;;14.88;2.45;;;;;;;15.35;82.77;98567.88;5049905;28;20036;-52
2021/09/19 01:43:00;;;;;;;4.93;1.00;;;;;;;15.30;82.47;98578.34;5049857;28;20510;-52
2021/09/19 01:45:26;;;;;;;4.63;1.33;;;;;;;15.16;82.40;98579.63;5051176;28;20509;-51
2021/09/19 01:47:52;;;;;;;8.80;4.38;;;;;;;15.11;82.89;98582.97;5052037;28;20021;-52
2021/09/19 01:50:21;;;;;;;8.57;5.47;;;;;;;15.04;82.92;98589.41;5053607;28;20051;-52
2021/09/19 01:52:48;;;;;;;6.82;2.72;;;;;;;15.02;83.29;98586.22;5054881;28;20453;-52
2021/09/19 01:55:14;;;;;;;17.77;13.45;;;;;;;15.15;83.85;98586.78;5054849;28;20032;-52
2021/09/19 01:57:40;;;;;;;4.50;1.67;;;;;;;15.14;82.58;98587.00;5054799;28;20029;-52
2021/09/19 02:00:09;;;;;;;8.70;5.72;;;;;;;15.02;82.66;98573.78;5053435;28;20449;-52
2021/09/19 02:02:35;;;;;;;5.80;1.80;;;;;;;14.99;83.45;98568.97;5053365;28;20021;-52
2021/09/19 02:05:02;;;;;;;11.48;5.95;;;;;;;14.81;83.73;98562.00;5054707;28;20111;-52
2021/09/19 02:07:28;;;;;;;3.10;1.33;;;;;;;14.57;84.09;98543.50;5054613;28;20021;-52
2021/09/19 02:09:56;;;;;;;4.30;0.88;;;;;;;14.44;84.67;98553.44;5053275;28;20445;-52
2021/09/19 02:12:22;;;;;;;5.40;1.50;;;;;;;14.42;85.12;98545.75;5053193;28;20033;-52
2021/09/19 02:14:48;;;;;;;14.00;7.75;;;;;;;14.47;85.79;98532.66;5054448;28;20102;-52
2021/09/19 02:17:14;;;;;;;4.60;1.27;;;;;;;14.53;86.18;98533.59;5054439;28;20058;-52
2021/09/19 02:19:40;;;;;;;17.15;8.63;;;;;;;14.94;86.77;98530.03;5052860;28;20384;-52
2021/09/19 02:22:08;;;;;;;19.50;11.77;;;;;;;15.46;86.68;98518.63;5054318;28;20033;-52
2021/09/19 02:24:34;;;;;;;26.95;5.80;;;;;;;15.86;86.46;98485.22;5052950;28;20025;-52
2021/09/19 02:26:59;;;;;;;24.60;5.20;;;;;;;16.17;86.13;98460.81;5053067;28;20029;-51
2021/09/19 02:29:25;;;;;;;8.15;1.65;;;;;;;16.44;85.48;98478.72;5054221;28;20021;-50
2021/09/19 02:31:51;;;;;;;79.57;71.72;;;;;;;15.95;82.32;98497.81;5052812;28;20082;-52
2021/09/19 02:34:16;;;;;;;13.95;9.63;;;;;;;15.36;83.08;98513.94;5054159;28;20096;-50
2021/09/19 02:36:42;;;;;;;10.80;3.70;;;;;;;15.27;84.13;98541.81;5054081;28;20036;-52
2021/09/19 02:39:09;;;;;;;25.23;18.75;;;;;;;15.22;84.07;98556.75;5054016;28;20552;-52
2021/09/19 02:41:37;;;;;;;9.70;3.10;;;;;;;15.17;83.96;98554.78;5052585;28;20029;-52
2021/09/19 02:44:04;;;;;;;3.83;1.80;;;;;;;15.18;84.47;98549.28;5053958;28;20019;-52
2021/09/19 02:46:30;;;;;;;4.65;1.48;;;;;;;15.25;84.41;98513.97;5054107;28;20494;-52
2021/09/19 02:48:56;;;;;;;13.45;3.63;;;;;;;15.49;85.12;98456.50;5053859;28;20025;-52
2021/09/19 02:51:22;;;;;;;10.85;1.48;;;;;;;15.72;84.98;98467.00;5052484;28;20035;-51
2021/09/19 02:53:47;;;;;;;36.38;22.65;;;;;;;15.78;84.97;98503.09;5053757;28;20029;-52
2021/09/19 02:56:13;;;;;;;23.42;7.30;;;;;;;15.88;85.00;98534.22;5053637;28;20036;-51
2021/09/19 02:58:39;;;;;;;17.77;7.07;;;;;;;16.17;85.33;98537.59;5052814;28;20095;-52
2021/09/19 03:01:05;;;;;;;3.95;0.95;;;;;;;16.15;83.73;98545.00;5053656;28;20106;-49
2021/09/19 03:03:30;;;;;;;6.22;1.40;;;;;;;15.93;83.34;98550.19;5052167;28;20543;-49
2021/09/19 03:05:59;;;;;;;16.77;9.43;;;;;;;15.73;83.14;98553.25;5053609;28;20021;-49
2021/09/19 03:08:25;;;;;;;3.83;3.08;;;;;;;15.60;83.26;98564.13;5053516;28;20056;-50
2021/09/19 03:10:50;;;;;;;10.77;3.22;;;;;;;15.46;83.26;98566.22;5052124;28;20075;-50
2021/09/19 03:13:16;;;;;;;7.47;1.77;;;;;;;15.34;83.39;98570.75;5052038;28;20021;-50
2021/09/19 03:15:42;;;;;;;5.45;1.20;;;;;;;15.25;83.46;98562.38;5052068;28;20409;-50
2021/09/19 03:18:08;;;;;;;3.83;1.15;;;;;;;15.19;83.17;98576.50;5053298;28;20036;-49
2021/09/19 03:20:34;;;;;;;6.03;1.15;;;;;;;15.13;83.27;98569.50;5052962;28;20037;-49
2021/09/19 03:23:00;;;;;;;5.47;1.23;;;;;;;15.06;83.30;98571.50;5051841;28;20048;-50
2021/09/19 03:25:26;;;;;;;8.65;4.10;;;;;;;14.96;83.28;98554.38;5053119;28;20025;-50
2021/09/19 03:27:52;;;;;;;26.40;15.90;;;;;;;14.92;83.42;98540.03;5051799;28;20403;-50
2021/09/19 03:30:18;;;;;;;13.20;10.73;;;;;;;14.91;83.61;98543.72;5051688;28;20036;-49
2021/09/19 03:32:45;;;;;;;10.60;4.43;;;;;;;14.94;84.21;98531.88;5053023;28;20032;-50
2021/09/19 03:35:12;;;;;;;11.40;3.08;;;;;;;15.23;84.85;98518.69;5051616;28;20036;-50
2021/09/19 03:37:39;;;;;;;7.47;4.03;;;;;;;15.39;84.72;98531.16;5052934;28;20511;-49
2021/09/19 03:40:07;;;;;;;5.60;2.63;;;;;;;15.46;84.37;98536.34;5051638;28;20063;-50
2021/09/19 03:42:32;;;;;;;9.07;2.70;;;;;;;15.50;84.33;98532.97;5052743;28;20017;-50
2021/09/19 03:44:58;;;;;;;13.20;4.15;;;;;;;15.72;84.62;98500.56;5051453;28;20032;-49
2021/09/19 03:47:24;;;;;;;24.77;21.50;;;;;;;16.05;84.90;98515.69;5052736;28;20040;-49
2021/09/19 03:49:49;;;;;;;3.10;1.52;;;;;;;16.34;84.11;98518.28;5052716;28;20079;-49
2021/09/19 03:52:15;;;;;;;2.42;1.98;;;;;;;16.39;82.91;98507.75;5051310;28;20464;-49
2021/09/19 03:54:40;;;;;;;6.90;2.80;;;;;;;16.21;81.84;98510.66;5051270;28;20171;-49
2021/09/19 03:57:06;;;;;;;10.23;1.70;;;;;;;16.09;82.18;98502.78;5052555;28;20024;-49
2021/09/19 03:59:32;;;;;;;14.60;12.70;;;;;;;15.99;81.87;98508.72;5051209;28;20063;-49
2021/09/19 04:01:58;;;;;;;11.85;4.03;;;;;;;16.01;81.98;98514.56;5051053;28;20499;-49
2021/09/19 04:04:23;;;;;;;5.22;2.38;;;;;;;16.21;82.76;98513.31;5052379;28;20381;-49
2021/09/19 04:06:49;;;;;;;8.85;5.97;;;;;;;16.38;81.68;98522.84;5052352;28;20017;-49
2021/09/19 04:09:15;;;;;;;12.93;4.97;;;;;;;16.37;81.54;98518.59;5052362;28;20025;-49
2021/09/19 04:11:40;;;;;;;1.35;0.80;;;;;;;16.38;80.80;98514.91;5052182;28;20023;-49
2021/09/19 04:14:06;;;;;;;5.80;1.23;;;;;;;16.18;80.32;98514.59;5051227;28;20128;-49
2021/09/19 04:16:31;;;;;;;7.35;1.00;;;;;;;15.89;79.76;98517.28;5050891;28;20108;-49
2021/09/19 04:18:58;;;;;;;2.50;0.70;;;;;;;15.63;79.82;98515.22;5052184;28;20056;-49
2021/09/19 04:21:24;;;;;;;7.30;1.27;;;;;;;15.42;80.44;98519.34;5051816;28;20049;-49
2021/09/19 04:23:50;;;;;;;4.90;1.00;;;;;;;15.30;80.98;98514.88;5052117;28;20021;-49
2021/09/19 04:26:15;;;;;;;2.22;1.00;;;;;;;15.25;81.10;98506.03;5050751;28;20067;-49
2021/09/19 04:28:41;;;;;;;4.63;1.30;;;;;;;15.21;81.06;98500.41;5050837;28;20133;-51
2021/09/19 04:31:07;;;;;;;4.47;0.80;;;;;;;15.25;80.96;98506.03;5050649;28;20036;-50
2021/09/19 04:33:32;;;;;;;3.30;1.08;;;;;;;15.25;80.92;98503.41;5050629;28;20021;-51
2021/09/19 04:35:58;;;;;;;2.80;0.50;;;;;;;15.22;80.84;98509.97;5052215;28;20058;-51
2021/09/19 04:38:23;;;;;;;7.43;0.73;;;;;;;15.19;80.64;98505.13;5050577;28;20411;-51
2021/09/19 04:40:49;;;;;;;5.00;2.13;;;;;;;15.20;80.60;98516.53;5051845;28;20029;-50
2021/09/19 04:43:15;;;;;;;3.78;1.13;;;;;;;15.20;80.45;98511.25;5051793;28;20045;-50
2021/09/19 04:45:41;;;;;;;7.45;2.60;;;;;;;15.13;80.65;98509.53;5051736;28;20075;-51
2021/09/19 04:48:07;;;;;;;5.75;2.35;;;;;;;15.36;81.64;98505.22;5050480;28;20514;-50
2021/09/19 04:50:34;;;;;;;7.60;2.42;;;;;;;15.77;80.64;98504.16;5050450;28;20033;-51
2021/09/19 04:52:59;;;;;;;5.60;1.40;;;;;;;15.76;79.45;98505.19;5051683;28;20025;-50
2021/09/19 04:55:25;;;;;;;4.40;2.35;;;;;;;15.67;78.62;98508.41;5050395;28;20036;-50
2021/09/19 04:57:51;;;;;;;1.77;0.73;;;;;;;15.62;78.95;98500.41;5050441;28;20367;-51
2021/09/19 05:00:16;;;;;;;9.80;5.22;;;;;;;15.57;78.53;98503.72;5051615;28;20399;-49
2021/09/19 05:02:42;;;;;;;12.82;7.70;;;;;;;15.84;80.08;98505.84;5051818;28;20368;-48
2021/09/19 05:05:08;;;;;;;18.27;4.35;;;;;;;16.12;80.22;98505.78;5050251;28;20376;-48
2021/09/19 05:07:34;;;;;;;9.63;3.35;;;;;;;16.12;78.67;98507.63;5050232;28;20017;-49
2021/09/19 05:10:00;;;;;;;56.45;50.28;;;;;;;16.21;79.71;98508.81;5050242;28;20033;-49
2021/09/19 05:12:26;;;;;;;21.50;19.35;;;;;;;16.35;78.64;98509.28;5050181;28;20398;-49
2021/09/19 05:14:55;;;;;;;18.75;17.05;;;;;;;16.32;77.73;98510.59;5051503;28;20394;-48
2021/09/19 05:17:21;;;;;;;217.48;200.43;;;;;;;16.19;77.52;98508.25;5051466;28;20013;-49
2021/09/19 05:19:47;;;;;;;14.98;13.68;;;;;;;16.21;77.04;98513.31;5051253;28;20049;-49
2021/09/19 05:22:13;;;;;;;23.30;20.80;;;;;;;16.17;77.00;98510.34;5051306;28;20032;-49
2021/09/19 05:24:38;;;;;;;7.00;3.28;;;;;;;16.07;76.83;98510.97;5055449;28;20418;-49
2021/09/19 05:27:04;;;;;;;10.90;5.50;;;;;;;16.10;77.46;98515.78;5054046;28;20079;-49
2021/09/19 05:29:30;;;;;;;4.35;1.13;;;;;;;16.29;77.05;98518.19;5054363;28;20398;-49
2021/09/19 05:31:56;;;;;;;3.90;0.70;;;;;;;16.28;74.60;98508.63;5055308;28;20035;-49
2021/09/19 05:34:25;;;;;;;12.35;4.35;;;;;;;16.31;75.98;98516.13;5055298;28;20112;-49
2021/09/19 05:36:51;;;;;;;9.27;2.90;;;;;;;16.54;75.82;98518.59;5053913;28;20025;-49
2021/09/19 05:39:17;;;;;;;5.25;1.83;;;;;;;16.66;74.28;98512.38;5055166;28;20035;-49
2021/09/19 05:41:42;;;;;;;31.85;28.75;;;;;;;16.51;74.55;98515.63;5055019;28;20029;-49
2021/09/19 05:44:08;;;;;;;8.75;4.55;;;;;;;16.74;75.97;98511.94;5053745;28;20052;-49
2021/09/19 05:46:34;;;;;;;24.35;13.98;;;;;;;17.10;75.79;98513.25;5055008;28;20573;-49
2021/09/19 05:48:59;;;;;;;8.35;3.00;;;;;;;17.36;74.29;98513.53;5053650;28;20078;-49
2021/09/19 05:51:27;;;;;;;10.50;4.00;;;;;;;17.52;74.07;98501.25;5054960;28;20075;-49
2021/09/19 05:53:52;;;;;;;3.63;2.05;;;;;;;17.66;72.89;98507.75;5053627;28;20047;-49
2021/09/19 05:56:18;;;;;;;9.43;2.42;;;;;;;17.72;72.70;98506.72;5054827;28;20559;-49
2021/09/19 05:58:47;;;;;;;4.85;0.50;;;;;;;17.60;71.05;98505.28;5053574;28;20029;-49
2021/09/19 06:01:12;;;;;;;10.15;4.25;;;;;;;17.33;72.91;98512.19;5054778;28;20021;-49
2021/09/19 06:03:38;;;;;;;9.18;3.05;;;;;;;17.56;73.27;98507.66;5054685;28;20031;-49
2021/09/19 06:06:04;;;;;;;13.48;3.97;;;;;;;17.87;73.34;98500.81;5054664;28;20407;-49
2021/09/19 06:08:30;;;;;;;10.02;3.13;;;;;;;18.19;72.24;98507.16;5054707;28;20045;-49
2021/09/19 06:10:55;;;;;;;6.30;1.65;;;;;;;18.33;71.27;98513.63;5054624;28;20029;-49
2021/09/19 06:13:21;;;;;;;9.15;6.18;;;;;;;18.06;71.46;98519.81;5053291;28;20071;-49
2021/09/19 06:15:47;;;;;;;4.65;3.97;;;;;;;17.82;72.04;98521.16;5054628;28;20091;-49
2021/09/19 06:18:12;;;;;;;28.48;12.48;;;;;;;17.65;71.80;98518.63;5054509;28;20025;-49
2021/09/19 06:20:39;;;;;;;5.03;1.60;;;;;;;17.53;72.45;98524.06;5052949;28;20076;-50
2021/09/19 06:23:05;;;;;;;13.55;6.13;;;;;;;17.43;73.19;98523.97;5054361;28;20024;-50
2021/09/19 06:25:31;;;;;;;6.93;2.10;;;;;;;17.67;73.31;98522.63;5054357;28;20021;-50
2021/09/19 06:27:56;;;;;;;5.10;1.70;;;;;;;17.90;72.29;98523.41;5052990;28;20067;-50
2021/09/19 06:30:22;;;;;;;18.35;6.10;;;;;;;18.08;72.71;98520.38;5052962;28;20028;-49
2021/09/19 06:32:48;;;;;;;15.30;5.30;;;;;;;18.41;71.57;98523.81;5052547;28;20021;-49
2021/09/19 06:35:13;;;;;;;10.77;4.47;;;;;;;18.79;71.29;98524.59;5053174;28;20025;-49
2021/09/19 06:37:39;;;;;;;14.30;6.28;;;;;;;19.16;70.33;98523.72;5052825;28;20029;-49
2021/09/19 06:40:05;;;;;;;14.20;5.40;;;;;;;19.42;68.90;98524.59;5052711;28;20032;-49
2021/09/19 06:42:31;;;;;;;4.40;2.00;;;;;;;19.61;67.23;98516.91;5052640;28;20163;-49
2021/09/19 06:44:57;;;;;;;13.20;3.30;;;;;;;19.59;66.49;98524.38;5053951;28;20028;-49
2021/09/19 06:47:22;;;;;;;7.20;2.25;;;;;;;19.50;65.91;98528.63;5053906;28;20017;-50
2021/09/19 06:49:52;;;;;;;6.15;1.85;;;;;;;19.47;65.88;98521.94;5053900;28;20031;-50
2021/09/19 06:52:19;;;;;;;5.43;1.60;;;;;;;19.60;65.77;98517.16;5052500;28;20526;-49
2021/09/19 06:54:45;;;;;;;8.00;2.17;;;;;;;19.85;65.13;98519.13;5053787;28;20408;-49
2021/09/19 06:57:11;;;;;;;11.82;4.50;;;;;;;19.75;66.56;98528.69;5052372;28;20111;-49
2021/09/19 06:59:37;;;;;;;5.47;0.93;;;;;;;19.42;68.88;98534.41;5053742;28;20336;-49
2021/09/19 07:02:03;;;;;;;7.75;0.85;;;;;;;18.72;69.49;98531.97;5052556;28;20430;-50
2021/09/19 07:04:29;;;;;;;2.42;0.95;;;;;;;18.02;71.13;98532.00;5053622;28;20080;-50
2021/09/19 07:06:55;;;;;;;4.57;2.50;;;;;;;17.44;73.00;98539.63;5053529;28;20542;-50
2021/09/19 07:09:20;;;;;;;4.03;0.90;;;;;;;17.04;74.17;98535.44;5053555;28;20028;-51
2021/09/19 07:11:46;;;;;;;8.02;1.63;;;;;;;16.72;75.93;98537.88;5052136;28;20498;-51
2021/09/19 07:14:12;;;;;;;7.85;2.10;;;;;;;16.84;77.44;98545.78;5052078;28;20052;-51
2021/09/19 07:16:38;;;;;;;4.25;0.70;;;;;;;16.75;76.72;98550.66;5053342;28;20063;-50
2021/09/19 07:19:03;;;;;;;3.38;1.48;;;;;;;16.57;77.12;98546.44;5053333;28;20017;-50
2021/09/19 07:21:29;;;;;;;4.38;0.80;;;;;;;16.33;77.65;98557.19;5053035;28;20045;-50
2021/09/19 07:23:55;;;;;;;7.20;1.60;;;;;;;16.22;78.94;98558.09;5053235;28;20021;-50
2021/09/19 07:26:20;;;;;;;3.60;1.00;;;;;;;16.20;79.21;98568.13;5051844;28;20039;-50
2021/09/19 07:28:46;;;;;;;9.25;1.83;;;;;;;16.19;79.75;98566.50;5053190;28;20376;-50
2021/09/19 07:31:12;;;;;;;3.13;0.93;;;;;;;16.19;79.92;98574.44;5053066;28;20131;-50
2021/09/19 07:33:38;;;;;;;4.60;1.13;;;;;;;16.19;80.04;98585.03;5053034;28;20527;-51
2021/09/19 07:36:04;;;;;;;4.75;2.10;;;;;;;16.21;80.37;98580.31;5051681;28;20021;-50
2021/09/19 07:38:30;;;;;;;1.63;1.17;;;;;;;16.31;80.21;98585.75;5051631;28;20449;-50
2021/09/19 07:40:56;;;;;;;11.85;2.53;;;;;;;16.39;80.09;98587.22;5052819;28;20017;-50
2021/09/19 07:43:25;;;;;;;8.23;7.10;;;;;;;16.42;80.08;98586.75;5051522;28;20021;-50
2021/09/19 07:45:53;;;;;;;9.25;7.78;;;;;;;16.50;79.81;98586.34;5052365;28;20040;-50
2021/09/19 07:48:21;;;;;;;5.80;2.85;;;;;;;16.50;78.99;98593.47;5051484;28;20041;-50
2021/09/19 07:50:47;;;;;;;12.60;10.13;;;;;;;16.46;79.21;98595.00;5052689;28;20024;-50
2021/09/19 07:53:13;;;;;;;4.85;1.63;;;;;;;16.30;79.54;98604.56;5051624;28;20123;-50
2021/09/19 07:55:39;;;;;;;4.03;0.70;;;;;;;16.26;79.93;98604.22;5051287;28;20582;-50
2021/09/19 07:58:05;;;;;;;7.03;1.60;;;;;;;16.24;79.46;98603.66;5052617;28;20116;-50
2021/09/19 08:00:31;;;;;;;1.65;0.47;;;;;;;16.22;79.11;98603.09;5051173;28;20395;-50
2021/09/19 08:02:56;;;;;;;7.18;1.73;;;;;;;16.35;79.13;98610.72;5052408;28;20021;-50
2021/09/19 08:05:24;;;;;;;6.75;1.42;;;;;;;16.83;80.01;98607.78;5052445;28;20059;-50
2021/09/19 08:07:50;;;;;;;12.15;7.82;;;;;;;17.41;78.94;98613.63;5052204;28;20085;-50
2021/09/19 08:10:16;;;;;;;15.65;9.00;;;;;;;17.73;77.88;98619.84;5052400;28;20028;-50
2021/09/19 08:12:46;;;;;;;5.40;1.60;;;;;;;17.84;76.91;98612.81;5052361;28;20366;-50
2021/09/19 08:15:13;;;;;;;5.50;1.20;;;;;;;17.88;76.31;98621.06;5050968;28;20461;-50
2021/09/19 08:17:39;;;;;;;4.93;1.23;;;;;;;17.94;75.68;98618.22;5052131;28;20025;-50
2021/09/19 08:20:06;;;;;;;4.55;1.30;;;;;;;18.02;74.23;98622.28;5050592;28;20061;-50
2021/09/19 08:22:32;;;;;;;9.32;2.58;;;;;;;18.13;74.79;98624.00;5050807;28;20025;-50
2021/09/19 08:25:03;;;;;;;8.55;3.58;;;;;;;18.55;73.79;98628.63;5052064;28;20131;-49
2021/09/19 08:27:31;;;;;;;3.70;1.40;;;;;;;19.02;71.93;98627.13;5052409;28;20052;-49
2021/09/19 08:29:56;;;;;;;7.32;2.75;;;;;;;19.23;71.24;98629.88;5051986;28;20029;-49
2021/09/19 08:32:23;;;;;;;6.90;2.47;;;;;;;19.63;69.64;98641.78;5050692;28;20403;-49
2021/09/19 08:34:49;;;;;;;1.90;1.00;;;;;;;19.92;68.37;98637.66;5051833;28;20049;-49
2021/09/19 08:37:15;;;;;;;3.47;2.03;;;;;;;20.04;67.42;98637.41;5051946;28;20072;-49
2021/09/19 08:39:40;;;;;;;5.15;1.33;;;;;;;20.27;67.33;98644.09;5051921;28;20444;-49
2021/09/19 08:42:06;;;;;;;10.98;2.70;;;;;;;20.64;65.77;98640.41;5051750;28;20017;-49
2021/09/19 08:44:32;;;;;;;7.80;1.48;;;;;;;21.16;64.22;98633.16;5050511;28;20112;-49
2021/09/19 08:47:00;;;;;;;5.00;2.03;;;;;;;21.56;62.68;98636.78;5051744;28;20028;-49
2021/09/19 08:49:26;;;;;;;7.50;3.10;;;;;;;21.78;62.05;98640.97;5051799;28;20021;-49
2021/09/19 08:51:51;;;;;;;6.07;3.60;;;;;;;22.05;60.92;98641.34;5051735;28;20063;-49
2021/09/19 08:54:18;;;;;;;3.20;1.30;;;;;;;22.53;59.33;98646.13;5051709;28;20243;-49
2021/09/19 08:56:47;;;;;;;7.38;1.27;;;;;;;23.22;57.58;98646.06;5051114;28;20427;-49
2021/09/19 08:59:12;;;;;;;5.43;0.98;;;;;;;23.95;55.83;98644.94;5051602;28;20032;-49
2021/09/19 09:02:02;;;;;;;2.47;0.52;;;;;;;24.21;54.86;98649.94;5051528;28;20033;-49
2021/09/19 09:04:28;;;;;;;5.15;1.77;;;;;;;24.00;53.78;98652.09;5051674;28;20047;-49
2021/09/19 09:06:55;;;;;;;3.17;1.05;;;;;;;23.79;54.08;98651.59;5050538;28;20025;-49
2021/09/19 09:09:22;;;;;;;5.68;2.03;;;;;;;23.49;54.44;98653.53;5052078;28;20398;-49
2021/09/19 09:12:09;;;;;;;4.85;1.10;;;;;;;22.94;54.92;98651.94;5051522;28;20032;-49
2021/09/19 09:14:42;;;;;;;4.70;1.77;;;;;;;22.05;55.43;98656.59;5051866;28;20131;-49
2021/09/19 09:17:20;;;;;;;8.68;2.45;;;;;;;21.60;57.63;98667.22;5050163;28;20116;-49
2021/09/19 09:19:49;;;;;;;3.55;1.15;;;;;;;21.28;57.67;98660.34;5051485;28;20191;-48
2021/09/19 09:22:20;;;;;;;6.45;1.10;;;;;;;20.91;58.42;98666.81;5051412;28;20518;-49
2021/09/19 09:25:07;;;;;;;4.25;2.13;;;;;;;20.91;59.36;98666.81;5051649;28;20047;-49
2021/09/19 09:27:41;;;;;;;2.10;0.93;;;;;;;20.79;59.59;98674.28;5051446;28;20502;-49
2021/09/19 09:30:15;;;;;;;4.70;0.73;;;;;;;20.39;60.30;98672.38;5051327;28;20025;-49
2021/09/19 09:33:04;;;;;;;8.87;1.70;;;;;;;19.67;64.50;98675.59;5051394;28;20021;-49
2021/09/19 09:35:41;;;;;;;6.50;1.27;;;;;;;19.15;66.05;98674.53;5051354;28;20021;-50
2021/09/19 09:38:18;;;;;;;9.70;1.40;;;;;;;18.67;67.18;98683.47;5050069;28;20029;-49
2021/09/19 09:40:44;;;;;;;6.65;1.42;;;;;;;18.39;68.36;98679.22;5051306;28;20139;-49
2021/09/19 09:43:12;;;;;;;5.80;1.70;;;;;;;18.24;68.46;98687.84;5051175;28;20108;-49
2021/09/19 09:45:41;;;;;;;3.60;1.15;;;;;;;18.14;68.48;98697.31;5049827;28;20036;-49
2021/09/19 09:48:29;;;;;;;8.05;1.92;;;;;;;18.16;69.09;98697.84;5049851;28;20029;-49
2021/09/19 09:50:58;;;;;;;9.55;7.22;;;;;;;18.30;70.25;98692.97;5051188;28;20553;-49
2021/09/19 09:53:25;;;;;;;5.35;2.50;;;;;;;18.23;71.37;98696.84;5051220;28;20040;-49
2021/09/19 09:55:53;;;;;;;3.67;1.90;;;;;;;18.22;72.43;98698.72;5051120;28;20144;-49
2021/09/19 09:58:19;;;;;;;1.25;0.80;;;;;;;18.14;70.88;98699.16;5049793;28;20044;-49
2021/09/19 10:00:47;;;;;;;7.60;1.17;;;;;;;18.09;71.26;98699.09;5049792;28;20421;-49
2021/09/19 10:03:14;;;;;;;7.43;2.33;;;;;;;17.96;69.86;98700.28;5049712;28;20517;-49
2021/09/19 10:05:41;;;;;;;19.63;17.85;;;;;;;17.95;68.69;98698.69;5049873;28;20418;-49
2021/09/19 10:08:06;;;;;;;5.47;3.33;;;;;;;18.05;67.69;98703.31;5050698;28;20037;-49
2021/09/19 10:10:43;;;;;;;2.83;1.55;;;;;;;18.36;66.90;98707.91;5053308;28;20021;-50
2021/09/19 10:13:14;;;;;;;4.03;0.80;;;;;;;19.03;66.49;98707.69;5054637;28;20029;-50
2021/09/19 10:15:44;;;;;;;8.30;0.90;;;;;;;19.65;63.51;98704.34;5054500;28;20013;-50
2021/09/19 10:18:11;;;;;;;7.35;1.73;;;;;;;20.11;63.21;98693.91;5053218;28;20055;-49
2021/09/19 10:20:48;;;;;;;7.00;1.35;;;;;;;20.31;62.21;98695.03;5054172;28;20395;-49
2021/09/19 10:23:30;;;;;;;3.78;0.70;;;;;;;20.48;59.73;98695.59;5054398;28;20025;-49
2021/09/19 10:26:04;;;;;;;3.10;0.63;;;;;;;20.48;58.09;98700.94;5052982;28;20059;-49
2021/09/19 10:28:40;;;;;;;2.83;0.73;;;;;;;20.68;56.49;98694.03;5054426;28;20025;-49
2021/09/19 10:31:09;;;;;;;4.38;0.40;;;;;;;21.00;55.82;98690.28;5052977;28;20033;-51
2021/09/19 10:33:49;;;;;;;1.50;0.50;;;;;;;21.17;53.74;98689.97;5052893;28;20490;-49
2021/09/19 10:36:23;;;;;;;3.80;0.90;;;;;;;21.10;53.16;98691.06;5054230;28;20025;-49
2021/09/19 10:39:10;;;;;;;4.82;2.55;;;;;;;21.08;51.77;98687.88;5054182;28;20032;-49
2021/09/19 10:41:35;;;;;;;2.17;0.73;;;;;;;21.13;51.97;98687.88;5052722;28;20041;-49
2021/09/19 10:44:02;;;;;;;2.10;0.60;;;;;;;21.14;51.22;98694.00;5054017;28;20438;-49
2021/09/19 10:46:37;;;;;;;2.45;0.32;;;;;;;21.22;50.35;98700.66;5053954;28;20234;-49
2021/09/19 10:49:19;;;;;;;3.72;0.68;;;;;;;21.37;50.34;98689.97;5053964;28;20017;-49
2021/09/19 10:52:00;;;;;;;3.30;0.68;;;;;;;21.79;50.56;98693.31;5053925;28;20029;-49
2021/09/19 10:54:49;;;;;;;9.32;2.08;;;;;;;22.20;50.45;98687.78;5053833;28;20522;-49
2021/09/19 10:57:29;;;;;;;3.63;0.80;;;;;;;22.55;50.34;98692.13;5053676;28;20053;-49
2021/09/19 11:00:07;;;;;;;3.63;0.65;;;;;;;22.81;48.06;98692.72;5052556;28;20028;-49
2021/09/19 11:02:35;;;;;;;2.70;0.68;;;;;;;23.11;47.14;98683.63;5053667;28;20033;-49
2021/09/19 11:05:32;;;;;;;3.78;0.70;;;;;;;23.76;45.71;98671.66;5053681;28;20053;-49
2021/09/19 11:08:06;;;;;;;4.15;1.20;;;;;;;24.39;43.55;98680.50;5049112;28;20518;-49
2021/09/19 11:10:48;;;;;;;2.55;0.80;;;;;;;24.98;42.12;98681.72;5053600;28;20092;-49
2021/09/19 11:13:22;;;;;;;0.77;0.50;;;;;;;25.09;40.60;98685.84;5053554;28;20040;-50
2021/09/19 11:16:03;;;;;;;2.40;0.40;;;;;;;24.98;40.94;98678.25;5052081;28;20403;-49
2021/09/19 11:18:44;;;;;;;3.53;0.80;;;;;;;24.90;39.86;98672.47;5053354;28;20041;-49
2021/09/19 11:21:10;;;;;;;4.15;0.60;;;;;;;24.81;39.72;98676.94;5052379;28;20049;-50
2021/09/19 11:23:38;;;;;;;3.35;0.55;;;;;;;24.70;40.23;98678.19;5053222;28;20021;-50
2021/09/19 11:26:09;;;;;;;2.42;0.80;;;;;;;24.50;40.63;98672.03;5053253;28;20074;-50
2021/09/19 11:28:36;;;;;;;2.08;0.50;;;;;;;24.20;40.99;98691.25;5051893;28;20075;-49
2021/09/19 11:31:03;;;;;;;1.30;0.60;;;;;;;24.24;40.36;98679.63;5053416;28;20025;-49